Time;durP1;ratioP1;P1;durP2;ratioP2;P2;SDS_P1;SDS_P2;PMS_P1;PMS_P2;Temp;Humidity;BMP_temperature;BMP_pressure;BME280_temperature;BME280_humidity;BME280_pressure;Samples;Min_cycle;Max_cycle;Signal;HPM_P1;HPM_P2
2022/09/24 00:01:28;;;;;;;9.03;8.37;;;;;;;;;;5095632;28;20519;-76
2022/09/24 00:03:58;;;;;;;10.33;8.50;;;;;;;;;;5095642;28;20402;-79
2022/09/24 00:06:24;;;;;;;13.80;8.60;;;;;;;;;;5095501;28;20410;-78
2022/09/24 00:08:51;;;;;;;10.00;9.00;;;;;;;;;;5095455;28;20500;-77
2022/09/24 00:11:20;;;;;;;10.73;9.50;;;;;;;;;;5095450;28;20878;-76
2022/09/24 00:13:47;;;;;;;10.17;9.10;;;;;;;;;;5095478;28;20810;-78
2022/09/24 00:16:15;;;;;;;11.00;8.27;;;;;;;;;;5094001;28;20479;-75
2022/09/24 00:18:41;;;;;;;11.13;8.10;;;;;;;;;;5095320;28;20459;-77
2022/09/24 00:21:13;;;;;;;9.20;8.33;;;;;;;;;;5095284;28;20927;-78
2022/09/24 00:23:39;;;;;;;9.33;8.30;;;;;;;;;;5093889;28;20425;-78
2022/09/24 00:28:50;;;;;;;10.17;8.40;;;;;;;;;;5095127;28;20411;-78
2022/09/24 00:31:16;;;;;;;11.30;8.67;;;;;;;;;;5095175;28;20405;-77
2022/09/24 00:33:42;;;;;;;8.87;8.10;;;;;;;;;;5095146;28;20407;-78
2022/09/24 00:36:08;;;;;;;11.87;8.80;;;;;;;;;;5094982;28;20518;-78
2022/09/24 00:38:34;;;;;;;9.10;7.80;;;;;;;;;;5095014;28;20409;-80
2022/09/24 00:41:00;;;;;;;11.97;8.00;;;;;;;;;;5093626;28;20421;-78
2022/09/24 00:43:34;;;;;;;11.27;8.23;;;;;;;;;;5094976;28;20413;-75
2022/09/24 00:46:09;;;;;;;9.97;8.43;;;;;;;;;;5094843;28;20412;-78
2022/09/24 00:48:39;;;;;;;13.00;8.10;;;;;;;;;;5093472;28;20857;-81
2022/09/24 00:51:06;;;;;;;13.20;9.50;;;;;;;;;;5094703;28;20433;-79
2022/09/24 00:53:32;;;;;;;16.70;8.80;;;;;;;;;;5094634;28;20413;-77
2022/09/24 00:55:59;;;;;;;14.17;9.90;;;;;;;;;;5092284;28;20489;-78
2022/09/24 00:58:26;;;;;;;10.23;9.17;;;;;;;;;;5093380;28;20417;-79
2022/09/24 01:00:55;;;;;;;8.73;8.03;;;;;;;;;;5095207;28;20513;-78
2022/09/24 01:03:22;;;;;;;8.97;8.00;;;;;;;;;;5094764;28;20802;-76
2022/09/24 01:05:49;;;;;;;11.60;8.90;;;;;;;;;;5094647;28;20433;-76
2022/09/24 01:08:16;;;;;;;12.37;8.60;;;;;;;;;;5094483;28;20413;-77
2022/09/24 01:11:00;;;;;;;9.40;8.13;;;;;;;;;;5094743;28;20497;-76
2022/09/24 01:13:34;;;;;;;12.23;8.47;;;;;;;;;;5093332;28;20405;-75
2022/09/24 01:16:05;;;;;;;10.43;8.20;;;;;;;;;;5093251;28;20559;-75
2022/09/24 01:18:38;;;;;;;9.37;8.53;;;;;;;;;;5094440;28;20413;-77
2022/09/24 01:21:24;;;;;;;10.70;8.07;;;;;;;;;;5094484;28;20399;-76
2022/09/24 01:23:56;;;;;;;14.67;9.20;;;;;;;;;;5094168;28;20415;-78
2022/09/24 01:26:31;;;;;;;10.30;8.83;;;;;;;;;;5094311;28;20406;-79
2022/09/24 01:29:04;;;;;;;10.07;9.07;;;;;;;;;;5094203;28;20412;-80
2022/09/24 01:31:36;;;;;;;9.30;8.40;;;;;;;;;;5094126;28;20880;-82
2022/09/24 01:34:04;;;;;;;10.40;8.60;;;;;;;;;;5094123;28;20399;-80
2022/09/24 01:36:31;;;;;;;10.60;8.30;;;;;;;;;;5093993;28;20460;-77
2022/09/24 01:38:58;;;;;;;10.70;8.70;;;;;;;;;;5093930;28;20420;-76
2022/09/24 01:41:24;;;;;;;9.57;8.53;;;;;;;;;;5093908;28;20876;-77
2022/09/24 01:43:50;;;;;;;10.93;9.30;;;;;;;;;;5093940;28;20409;-81
2022/09/24 01:46:18;;;;;;;11.53;9.20;;;;;;;;;;5092593;28;20992;-81
2022/09/24 01:48:44;;;;;;;16.63;8.90;;;;;;;;;;5093880;28;20401;-74
2022/09/24 01:51:15;;;;;;;9.80;8.87;;;;;;;;;;5092627;28;20432;-79
2022/09/24 01:53:45;;;;;;;10.30;8.57;;;;;;;;;;5093878;28;20409;-77
2022/09/24 01:56:16;;;;;;;9.53;8.80;;;;;;;;;;5092310;28;20479;-80
2022/09/24 01:58:51;;;;;;;10.57;9.80;;;;;;;;;;5093704;28;20412;-75
2022/09/24 02:01:21;;;;;;;11.27;10.17;;;;;;;;;;5093630;28;20530;-82
2022/09/24 02:03:50;;;;;;;10.40;9.27;;;;;;;;;;5093657;28;20469;-80
2022/09/24 02:06:27;;;;;;;13.83;9.73;;;;;;;;;;5093556;28;20808;-75
2022/09/24 02:08:55;;;;;;;11.27;10.17;;;;;;;;;;5093467;28;20513;-79
2022/09/24 02:11:23;;;;;;;9.63;8.90;;;;;;;;;;5093538;28;20398;-78
2022/09/24 02:13:52;;;;;;;12.43;9.50;;;;;;;;;;5094025;28;20394;-82
2022/09/24 02:16:24;;;;;;;10.20;9.30;;;;;;;;;;5092160;28;20484;-76
2022/09/24 02:18:52;;;;;;;14.63;8.43;;;;;;;;;;5093610;28;20401;-76
2022/09/24 02:21:19;;;;;;;8.10;7.33;;;;;;;;;;5093538;28;20411;-76
2022/09/24 02:23:50;;;;;;;9.23;8.37;;;;;;;;;;5093449;28;20424;-82
2022/09/24 02:26:16;;;;;;;10.93;8.33;;;;;;;;;;5093448;28;20402;-76
2022/09/24 02:28:42;;;;;;;8.93;8.03;;;;;;;;;;5093388;28;20416;-81
2022/09/24 02:31:17;;;;;;;8.30;7.60;;;;;;;;;;5092182;28;20432;-81
2022/09/24 02:36:32;;;;;;;8.03;7.23;;;;;;;;;;5093373;28;20468;-81
2022/09/24 02:38:58;;;;;;;9.50;7.07;;;;;;;;;;5093185;28;20410;-80
2022/09/24 02:41:24;;;;;;;7.70;7.20;;;;;;;;;;5093363;28;20505;-83
2022/09/24 02:43:50;;;;;;;7.60;7.07;;;;;;;;;;5093247;28;20405;-80
2022/09/24 02:46:16;;;;;;;8.37;7.57;;;;;;;;;;5091956;28;20516;-79
2022/09/24 02:48:42;;;;;;;8.37;7.50;;;;;;;;;;5093208;28;20902;-78
2022/09/24 02:51:08;;;;;;;7.70;7.20;;;;;;;;;;5093213;28;20415;-77
2022/09/24 02:53:34;;;;;;;7.40;6.83;;;;;;;;;;5093115;28;20902;-74
2022/09/24 02:56:00;;;;;;;8.00;6.60;;;;;;;;;;5093320;28;20495;-78
2022/09/24 02:58:30;;;;;;;13.70;5.70;;;;;;;;;;5093189;28;20414;-74
2022/09/24 03:00:56;;;;;;;5.30;5.00;;;;;;;;;;5093173;28;20409;-83
2022/09/24 03:03:23;;;;;;;5.60;4.77;;;;;;;;;;5092979;28;20883;-84
2022/09/24 03:05:53;;;;;;;4.73;4.37;;;;;;;;;;5092932;28;20484;-82
2022/09/24 03:08:20;;;;;;;5.17;4.87;;;;;;;;;;5092895;28;20418;-84
2022/09/24 03:10:46;;;;;;;8.53;5.17;;;;;;;;;;5093071;28;20390;-79
2022/09/24 03:13:12;;;;;;;5.47;5.07;;;;;;;;;;5092993;28;20905;-85
2022/09/24 03:15:38;;;;;;;5.07;4.70;;;;;;;;;;5091554;28;20505;-83
2022/09/24 03:18:04;;;;;;;5.23;4.83;;;;;;;;;;5091554;28;20429;-83
2022/09/24 03:20:31;;;;;;;5.73;5.30;;;;;;;;;;5095775;28;20401;-79
2022/09/24 03:22:57;;;;;;;5.27;4.93;;;;;;;;;;5096410;28;20449;-83
2022/09/24 03:25:24;;;;;;;5.70;5.20;;;;;;;;;;5096468;28;20406;-80
2022/09/24 03:27:50;;;;;;;4.67;4.47;;;;;;;;;;5096403;28;20414;-80
2022/09/24 03:33:00;;;;;;;5.30;4.80;;;;;;;;;;5096964;28;20405;-81
2022/09/24 03:35:26;;;;;;;5.50;5.00;;;;;;;;;;5096504;28;20936;-82
2022/09/24 03:37:52;;;;;;;5.30;5.00;;;;;;;;;;5096356;28;20413;-83
2022/09/24 03:40:18;;;;;;;4.90;4.60;;;;;;;;;;5095131;28;20414;-83
2022/09/24 03:42:44;;;;;;;7.57;4.47;;;;;;;;;;5096065;28;20411;-85
2022/09/24 03:45:10;;;;;;;5.00;4.70;;;;;;;;;;5096052;28;20494;-81
2022/09/24 03:47:36;;;;;;;4.23;3.93;;;;;;;;;;5095945;28;20412;-83
2022/09/24 03:50:02;;;;;;;5.07;4.87;;;;;;;;;;5095886;28;20494;-83
2022/09/24 03:52:28;;;;;;;4.97;4.57;;;;;;;;;;5095863;28;20414;-83
2022/09/24 03:54:54;;;;;;;4.30;4.20;;;;;;;;;;5095631;28;20476;-81
2022/09/24 03:57:20;;;;;;;5.27;4.97;;;;;;;;;;5095777;28;20418;-82
2022/09/24 03:59:46;;;;;;;5.90;3.70;;;;;;;;;;5094434;28;20427;-77
2022/09/24 04:02:12;;;;;;;4.80;4.40;;;;;;;;;;5095592;28;20419;-81
2022/09/24 04:04:38;;;;;;;4.50;4.30;;;;;;;;;;5095646;28;20488;-82
2022/09/24 04:07:04;;;;;;;3.83;3.73;;;;;;;;;;5095574;28;20923;-82
2022/09/24 04:09:33;;;;;;;5.80;4.60;;;;;;;;;;5094194;28;20456;-79
2022/09/24 04:11:59;;;;;;;3.73;3.63;;;;;;;;;;5095605;28;20475;-82
2022/09/24 04:14:25;;;;;;;4.10;3.90;;;;;;;;;;5094140;28;20469;-82
2022/09/24 04:16:51;;;;;;;4.67;4.43;;;;;;;;;;5095256;28;20471;-80
2022/09/24 04:19:17;;;;;;;4.03;3.80;;;;;;;;;;5095305;28;20755;-83
2022/09/24 04:21:44;;;;;;;3.80;3.60;;;;;;;;;;5095280;28;20405;-83
2022/09/24 04:24:10;;;;;;;4.37;3.90;;;;;;;;;;5095226;28;21054;-83
2022/09/24 04:26:36;;;;;;;4.23;4.13;;;;;;;;;;5093896;28;20437;-84
2022/09/24 04:29:02;;;;;;;4.20;4.00;;;;;;;;;;5095191;28;20405;-82
2022/09/24 04:31:28;;;;;;;4.07;3.97;;;;;;;;;;5094986;28;20884;-81
2022/09/24 04:33:54;;;;;;;3.77;3.67;;;;;;;;;;5095055;28;20413;-80
2022/09/24 04:36:20;;;;;;;3.83;3.80;;;;;;;;;;5094897;28;20974;-81
2022/09/24 04:38:46;;;;;;;4.40;4.10;;;;;;;;;;5094926;28;20410;-78
2022/09/24 04:41:15;;;;;;;4.30;4.10;;;;;;;;;;5094960;28;20488;-77
2022/09/24 04:43:41;;;;;;;4.70;4.10;;;;;;;;;;5094902;28;20405;-73
2022/09/24 04:46:11;;;;;;;3.40;3.30;;;;;;;;;;5094899;28;20406;-74
2022/09/24 04:48:38;;;;;;;4.00;3.90;;;;;;;;;;5094778;28;20938;-75
2022/09/24 04:51:05;;;;;;;3.70;3.70;;;;;;;;;;5094766;28;20966;-84
2022/09/24 04:53:31;;;;;;;4.50;4.30;;;;;;;;;;5094691;28;20505;-84
2022/09/24 04:55:58;;;;;;;3.30;3.20;;;;;;;;;;5094509;28;21148;-83
2022/09/24 04:58:25;;;;;;;4.60;4.50;;;;;;;;;;5093255;28;20516;-85
2022/09/24 05:00:51;;;;;;;4.83;4.43;;;;;;;;;;5093176;28;20468;-81
2022/09/24 05:03:17;;;;;;;5.20;4.60;;;;;;;;;;5093148;28;20416;-79
2022/09/24 05:05:43;;;;;;;4.07;3.87;;;;;;;;;;5094499;28;20498;-80
2022/09/24 05:08:09;;;;;;;4.03;3.90;;;;;;;;;;5094424;28;20446;-81
2022/09/24 05:10:35;;;;;;;5.47;4.97;;;;;;;;;;5094392;28;20505;-82
2022/09/24 05:13:01;;;;;;;4.80;4.60;;;;;;;;;;5094425;28;20973;-78
2022/09/24 05:15:27;;;;;;;4.63;4.43;;;;;;;;;;5094219;28;20954;-81
2022/09/24 05:17:55;;;;;;;5.10;4.80;;;;;;;;;;5094135;28;20405;-74
2022/09/24 05:20:21;;;;;;;5.57;5.27;;;;;;;;;;5094193;28;20421;-72
2022/09/24 05:22:48;;;;;;;4.50;4.20;;;;;;;;;;5094180;28;20880;-74
2022/09/24 05:25:15;;;;;;;8.67;7.90;;;;;;;;;;5093384;28;20405;-78
2022/09/24 05:27:48;;;;;;;13.27;11.93;;;;;;;;;;5093947;28;20406;-76
2022/09/24 05:30:14;;;;;;;12.13;11.10;;;;;;;;;;5094191;28;20991;-77
2022/09/24 05:32:40;;;;;;;6.87;6.37;;;;;;;;;;5092790;28;20420;-77
2022/09/24 05:35:07;;;;;;;5.80;5.60;;;;;;;;;;5093996;28;20787;-77
2022/09/24 05:37:33;;;;;;;6.53;6.10;;;;;;;;;;5092736;28;20432;-75
2022/09/24 05:40:46;;;;;;;6.07;5.50;;;;;;;;;;5093976;28;20461;-76
2022/09/24 05:42:45;;;;;;;4.43;4.33;;;;;;;;;;5093220;28;20425;-75
2022/09/24 05:45:16;;;;;;;4.03;3.92;;;;;;;;;;5092755;28;20416;-74
2022/09/24 05:47:42;;;;;;;3.60;3.40;;;;;;;;;;5092479;28;20634;-74
2022/09/24 05:50:08;;;;;;;4.10;3.77;;;;;;;;;;5092437;28;20521;-73
2022/09/24 05:52:34;;;;;;;3.90;3.70;;;;;;;;;;5093695;28;20422;-75
2022/09/24 05:55:00;;;;;;;3.70;3.60;;;;;;;;;;5093330;28;20469;-74
2022/09/24 05:57:26;;;;;;;3.50;3.40;;;;;;;;;;5093616;28;20426;-75
2022/09/24 05:59:52;;;;;;;3.50;3.40;;;;;;;;;;5093618;28;20418;-74
2022/09/24 06:02:18;;;;;;;3.23;3.10;;;;;;;;;;5092246;28;20406;-75
2022/09/24 06:04:44;;;;;;;3.83;3.50;;;;;;;;;;5093666;28;20425;-76
2022/09/24 06:07:10;;;;;;;5.83;3.60;;;;;;;;;;5093560;28;20411;-77
2022/09/24 06:09:36;;;;;;;3.40;3.30;;;;;;;;;;5093505;28;20413;-76
2022/09/24 06:12:02;;;;;;;4.00;3.87;;;;;;;;;;5093517;28;20466;-75
2022/09/24 06:14:28;;;;;;;3.50;3.30;;;;;;;;;;5092130;28;20506;-77
2022/09/24 06:16:54;;;;;;;3.60;3.53;;;;;;;;;;5093360;28;20513;-75
2022/09/24 06:19:20;;;;;;;3.73;3.43;;;;;;;;;;5093404;28;20451;-77
2022/09/24 06:21:47;;;;;;;7.20;6.70;;;;;;;;;;5092134;28;20893;-75
2022/09/24 06:24:13;;;;;;;3.87;3.50;;;;;;;;;;5093293;28;20498;-74
2022/09/24 06:26:38;;;;;;;4.47;4.17;;;;;;;;;;5093260;28;20423;-74
2022/09/24 06:29:05;;;;;;;4.13;3.90;;;;;;;;;;5093379;28;20405;-73
2022/09/24 06:31:31;;;;;;;4.60;4.30;;;;;;;;;;5092101;28;20512;-75
2022/09/24 06:33:57;;;;;;;3.63;3.33;;;;;;;;;;5093396;28;20885;-74
2022/09/24 06:36:23;;;;;;;3.73;3.50;;;;;;;;;;5093181;28;20461;-76
2022/09/24 06:38:50;;;;;;;3.50;3.20;;;;;;;;;;5093174;28;20428;-74
2022/09/24 06:41:17;;;;;;;5.30;3.63;;;;;;;;;;5093334;28;20821;-75
2022/09/24 06:43:42;;;;;;;4.40;4.10;;;;;;;;;;5093134;28;20417;-76
2022/09/24 06:46:09;;;;;;;4.40;4.10;;;;;;;;;;5091919;28;20417;-76
2022/09/24 06:48:37;;;;;;;4.67;4.37;;;;;;;;;;5093164;28;20410;-77
2022/09/24 06:51:04;;;;;;;3.50;3.40;;;;;;;;;;5093133;28;20873;-76
2022/09/24 06:53:30;;;;;;;4.60;4.20;;;;;;;;;;5093289;28;20426;-77
2022/09/24 06:56:02;;;;;;;4.13;3.80;;;;;;;;;;5095442;28;21016;-77
2022/09/24 06:58:28;;;;;;;4.17;3.97;;;;;;;;;;5097242;28;20809;-76
2022/09/24 07:00:59;;;;;;;3.00;2.90;;;;;;;;;;5097195;28;20739;-77
2022/09/24 07:03:25;;;;;;;4.73;3.20;;;;;;;;;;5096871;28;20403;-76
2022/09/24 07:05:51;;;;;;;3.03;2.90;;;;;;;;;;5096748;28;20966;-76
2022/09/24 07:08:17;;;;;;;3.77;3.43;;;;;;;;;;5096704;28;20818;-77
2022/09/24 07:10:51;;;;;;;3.40;3.30;;;;;;;;;;5096676;28;20889;-77
2022/09/24 07:13:17;;;;;;;4.00;3.80;;;;;;;;;;5096620;28;20394;-76
2022/09/24 07:15:43;;;;;;;3.60;3.50;;;;;;;;;;5095209;28;21090;-79
2022/09/24 07:18:10;;;;;;;3.33;3.17;;;;;;;;;;5096533;28;20811;-77
2022/09/24 07:20:36;;;;;;;22.13;19.43;;;;;;;;;;5096467;28;20463;-75
2022/09/24 07:23:03;;;;;;;3.60;3.50;;;;;;;;;;5095103;28;20414;-77
2022/09/24 07:25:29;;;;;;;3.53;3.43;;;;;;;;;;5096517;28;20412;-76
2022/09/24 07:27:55;;;;;;;3.90;3.60;;;;;;;;;;5095030;28;20418;-77
2022/09/24 07:30:21;;;;;;;6.93;4.33;;;;;;;;;;5096394;28;20840;-73
2022/09/24 07:32:49;;;;;;;4.40;3.40;;;;;;;;;;5096325;28;20449;-74
2022/09/24 07:35:15;;;;;;;8.00;7.40;;;;;;;;;;5094940;28;20425;-74
2022/09/24 07:37:41;;;;;;;3.67;3.57;;;;;;;;;;5096165;28;20475;-76
2022/09/24 07:40:07;;;;;;;3.07;3.07;;;;;;;;;;5096188;28;20882;-74
2022/09/24 07:42:34;;;;;;;3.80;3.60;;;;;;;;;;5094794;28;20430;-74
2022/09/24 07:45:00;;;;;;;3.67;3.57;;;;;;;;;;5094746;28;20426;-75
2022/09/24 07:47:26;;;;;;;4.30;4.10;;;;;;;;;;5096015;28;20406;-74
2022/09/24 07:49:51;;;;;;;4.03;3.80;;;;;;;;;;5094700;28;20418;-75
2022/09/24 07:52:17;;;;;;;6.10;3.27;;;;;;;;;;5096156;28;20529;-74
2022/09/24 07:54:43;;;;;;;3.97;3.83;;;;;;;;;;5095691;28;20478;-73
2022/09/24 07:57:11;;;;;;;3.10;3.00;;;;;;;;;;5095735;28;20506;-74
2022/09/24 07:59:37;;;;;;;3.23;3.17;;;;;;;;;;5095799;28;20438;-71
2022/09/24 08:02:06;;;;;;;7.10;6.60;;;;;;;;;;5095626;28;20413;-75
2022/09/24 08:04:32;;;;;;;3.27;3.17;;;;;;;;;;5095299;28;20460;-73
2022/09/24 08:06:59;;;;;;;4.60;3.50;;;;;;;;;;5094309;28;20424;-72
2022/09/24 08:09:25;;;;;;;4.77;3.20;;;;;;;;;;5095501;28;20415;-75
2022/09/24 08:11:51;;;;;;;4.17;3.70;;;;;;;;;;5095490;28;20503;-75
2022/09/24 08:14:17;;;;;;;3.80;3.50;;;;;;;;;;5095413;28;20419;-75
2022/09/24 08:16:43;;;;;;;3.57;3.33;;;;;;;;;;5095334;28;20475;-74
2022/09/24 08:19:12;;;;;;;3.03;2.70;;;;;;;;;;5095405;28;20469;-73
2022/09/24 08:21:39;;;;;;;3.10;2.90;;;;;;;;;;5095403;28;20414;-74
2022/09/24 08:24:05;;;;;;;3.10;3.00;;;;;;;;;;5095313;28;20468;-74
2022/09/24 08:26:31;;;;;;;3.23;3.23;;;;;;;;;;5095309;28;20750;-75
2022/09/24 08:28:57;;;;;;;3.77;3.50;;;;;;;;;;5095200;28;20544;-75
2022/09/24 08:31:23;;;;;;;3.57;3.13;;;;;;;;;;5095144;28;20410;-74
2022/09/24 08:33:49;;;;;;;2.93;2.83;;;;;;;;;;5093861;28;20422;-74
2022/09/24 08:36:17;;;;;;;3.00;2.80;;;;;;;;;;5095279;28;20468;-76
2022/09/24 08:38:43;;;;;;;3.23;3.13;;;;;;;;;;5095005;28;20414;-76
2022/09/24 08:41:12;;;;;;;8.70;3.40;;;;;;;;;;5094985;28;20970;-75
2022/09/24 08:43:57;;;;;;;5.17;3.40;;;;;;;;;;5094956;28;20447;-77
2022/09/24 08:49:23;;;;;;;3.37;3.27;;;;;;;;;;5094746;28;20419;-78
2022/09/24 08:52:03;;;;;;;4.07;3.47;;;;;;;;;;5094730;28;20880;-77
2022/09/24 08:54:30;;;;;;;3.47;3.23;;;;;;;;;;5094413;28;20976;-76
2022/09/24 08:56:57;;;;;;;3.77;3.57;;;;;;;;;;5094579;28;20962;-76
2022/09/24 08:59:29;;;;;;;3.80;3.50;;;;;;;;;;5094601;28;20900;-74
2022/09/24 09:02:13;;;;;;;2.83;2.73;;;;;;;;;;5094539;28;20458;-80
2022/09/24 09:04:39;;;;;;;3.30;3.10;;;;;;;;;;5095027;28;20399;-76
2022/09/24 09:07:37;;;;;;;3.37;3.27;;;;;;;;;;5095000;28;20415;-77
2022/09/24 09:10:07;;;;;;;2.87;2.77;;;;;;;;;;5061122;28;20426;-76
2022/09/24 09:12:36;;;;;;;2.20;2.20;;;;;;;;;;5093814;28;20430;-77
2022/09/24 09:15:05;;;;;;;2.83;2.77;;;;;;;;;;5094856;28;20428;-77
2022/09/24 09:17:40;;;;;;;3.37;2.80;;;;;;;;;;5093581;28;21045;-76
2022/09/24 09:20:10;;;;;;;2.37;2.37;;;;;;;;;;5094272;28;20872;-79
2022/09/24 09:22:41;;;;;;;3.83;3.63;;;;;;;;;;5094180;28;20414;-79
2022/09/24 09:25:16;;;;;;;3.20;3.10;;;;;;;;;;5094080;28;20420;-77
2022/09/24 09:27:42;;;;;;;2.70;2.70;;;;;;;;;;5094017;28;20774;-79
2022/09/24 09:30:12;;;;;;;2.80;2.80;;;;;;;;;;5094126;28;20397;-82
2022/09/24 09:32:50;;;;;;;2.90;2.60;;;;;;;;;;5093967;28;20518;-75
2022/09/24 09:35:26;;;;;;;2.80;2.70;;;;;;;;;;5094003;28;20767;-78
2022/09/24 09:37:52;;;;;;;2.80;2.60;;;;;;;;;;5093964;28;20433;-82
2022/09/24 09:40:24;;;;;;;2.50;2.50;;;;;;;;;;5094005;28;20438;-82
2022/09/24 09:42:51;;;;;;;2.97;2.77;;;;;;;;;;5093975;28;20473;-75
2022/09/24 09:45:32;;;;;;;3.60;3.40;;;;;;;;;;5093867;28;20435;-77
2022/09/24 09:47:59;;;;;;;3.73;2.80;;;;;;;;;;5093712;28;20492;-78
2022/09/24 09:50:40;;;;;;;3.07;2.87;;;;;;;;;;5093770;28;20400;-81
2022/09/24 09:53:18;;;;;;;3.23;3.13;;;;;;;;;;5093608;28;20408;-81
2022/09/24 09:55:43;;;;;;;2.50;2.40;;;;;;;;;;5093502;28;20480;-82
2022/09/24 09:58:15;;;;;;;3.00;2.80;;;;;;;;;;5093557;28;20842;-82
2022/09/24 10:00:42;;;;;;;3.27;3.10;;;;;;;;;;5093687;28;20399;-83
2022/09/24 10:03:26;;;;;;;2.87;2.73;;;;;;;;;;5092422;28;20912;-79
2022/09/24 10:05:56;;;;;;;3.17;2.97;;;;;;;;;;5092248;28;20409;-80
2022/09/24 10:08:23;;;;;;;3.33;3.13;;;;;;;;;;5092253;28;20447;-74
2022/09/24 10:10:54;;;;;;;3.90;3.67;;;;;;;;;;5092340;28;20424;-78
2022/09/24 10:13:20;;;;;;;3.57;3.47;;;;;;;;;;5093472;28;20407;-76
2022/09/24 10:15:57;;;;;;;3.37;2.60;;;;;;;;;;5092179;28;20539;-78
2022/09/24 10:18:43;;;;;;;3.10;3.00;;;;;;;;;;5092158;28;20422;-76
2022/09/24 10:21:10;;;;;;;3.43;3.13;;;;;;;;;;5093432;28;20774;-79
2022/09/24 10:23:41;;;;;;;3.87;3.50;;;;;;;;;;5093478;28;20435;-84
2022/09/24 10:26:08;;;;;;;3.13;3.03;;;;;;;;;;5093855;28;20955;-78
2022/09/24 10:31:29;;;;;;;3.40;3.30;;;;;;;;;;5098260;28;20453;-81
2022/09/24 10:33:56;;;;;;;4.00;3.33;;;;;;;;;;5096157;28;20950;-87
2022/09/24 10:36:26;;;;;;;6.50;6.00;;;;;;;;;;5097564;28;20492;-83
2022/09/24 10:39:07;;;;;;;2.60;2.50;;;;;;;;;;5096045;28;20504;-86
2022/09/24 10:41:34;;;;;;;2.73;2.73;;;;;;;;;;5096360;28;20967;-80
2022/09/24 10:44:02;;;;;;;2.83;2.70;;;;;;;;;;5097321;28;20444;-82
2022/09/24 10:46:28;;;;;;;2.70;2.60;;;;;;;;;;5095942;28;20432;-82
2022/09/24 10:49:06;;;;;;;3.40;3.30;;;;;;;;;;5097104;28;20546;-77
2022/09/24 10:51:44;;;;;;;3.20;2.40;;;;;;;;;;5095791;28;20788;-81
2022/09/24 10:54:30;;;;;;;2.73;2.70;;;;;;;;;;5095512;28;20511;-81
2022/09/24 10:56:56;;;;;;;2.73;2.63;;;;;;;;;;5095657;28;20997;-79
2022/09/24 10:59:38;;;;;;;3.13;2.93;;;;;;;;;;5096963;28;20960;-80
2022/09/24 11:02:04;;;;;;;3.57;3.00;;;;;;;;;;5095670;28;20431;-80
2022/09/24 11:04:30;;;;;;;2.33;2.33;;;;;;;;;;5097068;28;20409;-84
2022/09/24 11:06:59;;;;;;;2.50;2.20;;;;;;;;;;5096926;28;20845;-78
2022/09/24 11:09:43;;;;;;;3.30;3.30;;;;;;;;;;5096745;28;20419;-81
2022/09/24 11:12:36;;;;;;;2.60;2.50;;;;;;;;;;5096637;28;20415;-80
2022/09/24 11:15:05;;;;;;;2.63;2.57;;;;;;;;;;5094050;28;20429;-80
2022/09/24 11:17:33;;;;;;;2.00;2.00;;;;;;;;;;5096443;28;20458;-78
2022/09/24 11:19:59;;;;;;;2.20;2.20;;;;;;;;;;5096674;28;20399;-85
2022/09/24 11:22:33;;;;;;;3.03;2.13;;;;;;;;;;5096524;28;20879;-80
2022/09/24 11:25:02;;;;;;;2.90;2.80;;;;;;;;;;5095154;28;20426;-75
2022/09/24 11:27:40;;;;;;;3.63;2.53;;;;;;;;;;5095077;28;20410;-77
2022/09/24 11:30:23;;;;;;;1.63;1.63;;;;;;;;;;5096333;28;20431;-79
2022/09/24 11:32:52;;;;;;;2.07;1.97;;;;;;;;;;5095067;28;20917;-81
2022/09/24 11:35:37;;;;;;;4.00;1.87;;;;;;;;;;5096217;28;20413;-78
2022/09/24 11:38:14;;;;;;;1.97;1.87;;;;;;;;;;5096461;28;20485;-76
2022/09/24 11:40:59;;;;;;;2.50;2.40;;;;;;;;;;5095378;28;20403;-77
2022/09/24 11:43:32;;;;;;;2.10;2.00;;;;;;;;;;5096212;28;20401;-80
2022/09/24 11:46:16;;;;;;;2.63;2.00;;;;;;;;;;5096079;28;20400;-76
2022/09/24 11:48:54;;;;;;;3.73;2.67;;;;;;;;;;5094758;28;20410;-74
2022/09/24 11:51:25;;;;;;;1.97;1.97;;;;;;;;;;5094638;28;20421;-79
2022/09/24 11:53:54;;;;;;;2.40;2.30;;;;;;;;;;5095744;28;20484;-74
2022/09/24 11:56:31;;;;;;;2.00;2.00;;;;;;;;;;5095739;28;20556;-79
2022/09/24 11:59:16;;;;;;;2.53;2.43;;;;;;;;;;5095822;28;20410;-78
2022/09/24 12:01:47;;;;;;;2.00;1.90;;;;;;;;;;5095612;28;20411;-75
2022/09/24 12:04:16;;;;;;;2.40;2.30;;;;;;;;;;5096450;28;20463;-76
2022/09/24 12:06:42;;;;;;;2.30;2.20;;;;;;;;;;5097969;28;20482;-74
2022/09/24 12:09:19;;;;;;;2.07;2.07;;;;;;;;;;5098657;28;20423;-74
2022/09/24 12:11:53;;;;;;;3.07;2.40;;;;;;;;;;5097070;28;20458;-75
2022/09/24 12:14:24;;;;;;;2.50;2.30;;;;;;;;;;5100569;28;20485;-74
2022/09/24 12:16:58;;;;;;;2.20;2.20;;;;;;;;;;5099570;28;20472;-72
2022/09/24 12:19:41;;;;;;;2.63;2.40;;;;;;;;;;5098217;28;20925;-72
2022/09/24 12:22:08;;;;;;;2.60;2.50;;;;;;;;;;5096032;28;20403;-76
2022/09/24 12:24:37;;;;;;;2.33;2.33;;;;;;;;;;5094320;28;20533;-75
2022/09/24 12:27:06;;;;;;;2.90;2.07;;;;;;;;;;5095492;28;20410;-74
2022/09/24 12:35:22;;;;;;;19.37;17.50;;;;;;;;;;5095376;28;20468;-75
2022/09/24 12:37:50;;;;;;;2.17;2.17;;;;;;;;;;5095291;28;20853;-76
2022/09/24 12:40:45;;;;;;;2.30;2.30;;;;;;;;;;5094045;28;20516;-75
2022/09/24 12:43:41;;;;;;;2.20;2.10;;;;;;;;;;5095307;28;20405;-74
2022/09/24 12:46:08;;;;;;;1.87;1.87;;;;;;;;;;5082332;28;20417;-74
2022/09/24 12:48:36;;;;;;;2.40;2.30;;;;;;;;;;5093696;28;20433;-74
2022/09/24 12:51:04;;;;;;;2.20;2.20;;;;;;;;;;5094815;28;20397;-77
2022/09/24 12:53:35;;;;;;;2.10;2.00;;;;;;;;;;5093494;28;20437;-76
2022/09/24 12:56:02;;;;;;;2.43;2.33;;;;;;;;;;5093008;28;21037;-76
2022/09/24 12:58:42;;;;;;;2.53;2.23;;;;;;;;;;5094532;28;20434;-77
2022/09/24 13:01:12;;;;;;;2.10;2.00;;;;;;;;;;5094444;28;20409;-76
2022/09/24 13:03:39;;;;;;;2.37;2.27;;;;;;;;;;5094495;28;20442;-76
2022/09/24 13:06:25;;;;;;;2.40;2.17;;;;;;;;;;5094403;28;20408;-77
2022/09/24 13:08:51;;;;;;;2.30;2.20;;;;;;;;;;5079117;28;20927;-76
2022/09/24 13:11:28;;;;;;;2.77;2.50;;;;;;;;;;5094239;28;20411;-76
2022/09/24 13:14:04;;;;;;;2.30;2.20;;;;;;;;;;5094161;28;20755;-76
2022/09/24 13:16:31;;;;;;;2.60;2.40;;;;;;;;;;5094198;28;20951;-76
2022/09/24 13:18:59;;;;;;;2.20;2.20;;;;;;;;;;5094242;28;20461;-75
2022/09/24 13:21:26;;;;;;;2.43;2.27;;;;;;;;;;5094233;28;20433;-76
2022/09/24 13:23:52;;;;;;;3.03;2.93;;;;;;;;;;5094148;28;20411;-77
2022/09/24 13:26:24;;;;;;;4.80;2.50;;;;;;;;;;5094133;28;20493;-73
2022/09/24 13:28:57;;;;;;;2.90;2.80;;;;;;;;;;5094216;28;20478;-73
2022/09/24 13:31:25;;;;;;;2.63;2.53;;;;;;;;;;5094019;28;20405;-75
2022/09/24 13:33:55;;;;;;;2.83;2.53;;;;;;;;;;5093854;28;20612;-75
2022/09/24 13:36:25;;;;;;;2.70;2.50;;;;;;;;;;5093832;28;20507;-77
2022/09/24 13:38:57;;;;;;;2.40;2.40;;;;;;;;;;5092596;28;20424;-74
2022/09/24 13:41:42;;;;;;;3.50;2.73;;;;;;;;;;5093854;28;20461;-76
2022/09/24 13:44:15;;;;;;;2.83;2.73;;;;;;;;;;5092536;28;20409;-76
2022/09/24 13:46:44;;;;;;;2.10;2.00;;;;;;;;;;5093817;28;20411;-76
2022/09/24 13:49:15;;;;;;;3.07;2.60;;;;;;;;;;5092526;28;20424;-76
2022/09/24 13:51:41;;;;;;;3.03;2.70;;;;;;;;;;5093642;28;20480;-79
2022/09/24 13:54:16;;;;;;;2.57;2.47;;;;;;;;;;5092248;28;20447;-71
2022/09/24 13:56:43;;;;;;;2.40;2.30;;;;;;;;;;5093580;28;20474;-77
2022/09/24 13:59:12;;;;;;;3.00;2.90;;;;;;;;;;5093768;28;20824;-73
2022/09/24 14:01:42;;;;;;;2.87;2.73;;;;;;;;;;5093547;28;20407;-74
2022/09/24 14:04:16;;;;;;;13.10;8.70;;;;;;;;;;5093472;28;20403;-76
2022/09/24 14:06:44;;;;;;;2.97;2.87;;;;;;;;;;5093725;28;20400;-77
2022/09/24 14:09:22;;;;;;;2.37;2.37;;;;;;;;;;5093482;28;20982;-77
2022/09/24 14:11:49;;;;;;;2.40;2.30;;;;;;;;;;5093387;28;20890;-77
2022/09/24 14:14:18;;;;;;;2.77;2.57;;;;;;;;;;5092210;28;20422;-75
2022/09/24 14:16:44;;;;;;;2.60;2.50;;;;;;;;;;5092109;28;20482;-75
2022/09/24 14:19:14;;;;;;;3.20;2.90;;;;;;;;;;5092201;28;20768;-75
2022/09/24 14:21:43;;;;;;;2.27;2.27;;;;;;;;;;5093405;28;20419;-74
2022/09/24 14:24:17;;;;;;;2.43;2.33;;;;;;;;;;5093333;28;20426;-73
2022/09/24 14:26:46;;;;;;;2.80;2.70;;;;;;;;;;5093443;28;20419;-73
2022/09/24 14:29:14;;;;;;;2.63;2.63;;;;;;;;;;5093324;28;20409;-75
2022/09/24 14:31:45;;;;;;;2.53;2.43;;;;;;;;;;5093212;28;20411;-73
2022/09/24 14:34:24;;;;;;;2.70;2.60;;;;;;;;;;5093299;28;20415;-72
2022/09/24 14:36:50;;;;;;;2.20;2.20;;;;;;;;;;5093120;28;20462;-75
2022/09/24 14:39:16;;;;;;;2.57;2.57;;;;;;;;;;5091969;28;20416;-76
2022/09/24 14:41:42;;;;;;;4.30;2.20;;;;;;;;;;5093168;28;20426;-72
2022/09/24 14:44:21;;;;;;;2.37;2.27;;;;;;;;;;5091956;28;20914;-75
2022/09/24 14:46:50;;;;;;;2.87;2.60;;;;;;;;;;5093121;28;20392;-76
2022/09/24 14:49:19;;;;;;;2.23;2.23;;;;;;;;;;5091873;28;20518;-73
2022/09/24 14:51:57;;;;;;;3.00;2.70;;;;;;;;;;5093155;28;20415;-74
2022/09/24 14:54:24;;;;;;;2.60;2.60;;;;;;;;;;5092897;28;20474;-76
2022/09/24 14:56:50;;;;;;;2.50;2.40;;;;;;;;;;5093024;28;20470;-74
2022/09/24 14:59:27;;;;;;;2.53;2.53;;;;;;;;;;5093155;28;20455;-73
2022/09/24 15:02:02;;;;;;;3.07;2.97;;;;;;;;;;5093125;28;20418;-74
2022/09/24 15:04:28;;;;;;;2.93;2.83;;;;;;;;;;5093128;28;20390;-77
2022/09/24 15:06:54;;;;;;;2.47;2.37;;;;;;;;;;5092977;28;21025;-74
2022/09/24 15:09:28;;;;;;;2.53;2.50;;;;;;;;;;5092929;28;20401;-75
2022/09/24 15:11:55;;;;;;;2.70;2.50;;;;;;;;;;5093017;28;20930;-72
2022/09/24 15:14:26;;;;;;;2.00;1.90;;;;;;;;;;5093243;28;20557;-77